National Geographic Sea Bird — WAK8004 — position and weather

sailwx.info

Track history (hours):
 
Tides and Currents Weather Stations Pressure Air Temp Water Temp Dewpoint Dewpoint Depression Visibility Wind Speed Wind Dir Waves Ship Positions

National Geographic Sea Bird

Owner: Lindblad Expeditions LLC, SEATTLE, WA. More information available from US FCC via Universal Licensing System and Coast Guard Vessel Documentation Center.

Last reported at 2019-Apr-22 22:05 UTC. Time now 2019-Apr-24 22:18 UTC.
Position N 38°34' W 124°02'.

Length 50 m; draft 2.7 m.

Type: Passenger vessel. MMSI: 366892350.

Date/timePositionNaut miles runAvg speedWind from/ knotsBaromVisibWave heightAir tempDewpointWater temp
2019-Apr-22 22:05N 38°34' W 124°02'3 6.6
2019-Apr-22 21:39N 38°31' W 124°01'1 6.3
2019-Apr-22 21:30N 38°30' W 124°00'3 6.3
2019-Apr-22 21:00N 38°27' W 123°58'3 6.4
2019-Apr-22 20:31N 38°24' W 123°57'3 6.4
2019-Apr-22 20:00N 38°21' W 123°55'3 6.3
2019-Apr-22 19:30N 38°18' W 123°54'3 6.2
2019-Apr-22 19:01N 38°15' W 123°53'4 6.2
2019-Apr-22 18:24N 38°12' W 123°51'2 6.0
2019-Apr-22 18:00N 38°10' W 123°50'3 5.9
2019-Apr-22 17:30N 38°07' W 123°48'3 5.9
2019-Apr-22 17:01N 38°04' W 123°47'3 5.8
2019-Apr-22 16:31N 38°02' W 123°46'3 5.5
2019-Apr-22 16:01N 37°59' W 123°44'3 5.2
2019-Apr-22 15:31N 37°57' W 123°43'3 5.1
2019-Apr-22 15:01N 37°54' W 123°42'3 5.5
2019-Apr-22 14:31N 37°52' W 123°41'3 5.2
2019-Apr-22 14:00N 37°49' W 123°40'3 5.1
2019-Apr-22 13:31N 37°47' W 123°39'3 5.5
2019-Apr-22 13:00N 37°44' W 123°37'3 5.4
2019-Apr-22 12:30N 37°42' W 123°36'4 5.9
2019-Apr-22 11:46N 37°38' W 123°33'312 6.7
2019-Apr-20 13:21N 33°31' W 119°40'610.0
2019-Apr-20 12:44N 33°28' W 119°33'3 9.9
2019-Apr-20 12:28N 33°27' W 119°30'12 9.7
2019-Apr-20 11:12N 33°23' W 119°17'2 9.2
2019-Apr-20 11:00N 33°22' W 119°15'13 9.4
2019-Apr-20 09:39N 33°17' W 119°00'16 9.9
2019-Apr-20 07:59N 33°11' W 118°43'5 9.9
2019-Apr-20 07:30N 33°09' W 118°37'5 9.9
2019-Apr-20 07:00N 33°07' W 118°32'5 9.9
2019-Apr-20 06:30N 33°05' W 118°27'5 9.8
2019-Apr-20 06:00N 33°02' W 118°21'5 9.6
2019-Apr-20 05:30N 33°00' W 118°16'5 9.8
2019-Apr-20 05:00N 32°58' W 118°11'510.0
2019-Apr-20 04:29N 32°56' W 118°05'510.2
2019-Apr-20 04:00N 32°54' W 118°00'5 9.9
2019-Apr-20 03:31N 32°52' W 117°55'510.0
2019-Apr-20 03:01N 32°50' W 117°49'5 9.8
2019-Apr-20 02:31N 32°47' W 117°44'5 9.8
2019-Apr-20 02:00N 32°45' W 117°39'5 9.6
2019-Apr-20 01:30N 32°43' W 117°34'5 9.6
2019-Apr-20 01:00N 32°41' W 117°29'5 9.5
2019-Apr-20 00:31N 32°39' W 117°24'5 9.5
2019-Apr-20 00:01N 32°37' W 117°18'5 9.2
2019-Apr-19 23:31N 32°39' W 117°14'4 7.3
2019-Apr-19 23:01N 32°43' W 117°13'3 0.4
2019-Apr-19 16:18N 32°42' W 117°10'0 0.0
2019-Apr-19 14:52N 32°42' W 117°10'2 5.3
2019-Apr-19 14:30N 32°43' W 117°12'3 5.1
2019-Apr-19 14:00N 32°41' W 117°14'4 7.8
2019-Apr-19 13:31N 32°38' W 117°13'3 6.9
2019-Apr-19 13:01N 32°34' W 117°13'6 6.7
2019-Apr-19 12:06N 32°28' W 117°12'1 6.7
2019-Apr-19 12:00N 32°27' W 117°12'3 6.6
2019-Apr-19 11:29N 32°24' W 117°11'5 6.4
2019-Apr-19 10:41N 32°20' W 117°08'4 6.3
2019-Apr-19 10:04N 32°16' W 117°06'0 6.0
2019-Apr-19 10:00N 32°16' W 117°06'3 6.3
2019-Apr-19 09:30N 32°13' W 117°04'3 6.3
2019-Apr-19 09:01N 32°11' W 117°02'  
Track history (hours):
 
Tides and Currents Weather Stations Pressure Air Temp Water Temp Dewpoint Dewpoint Depression Visibility Wind Speed Wind Dir Waves Ship Positions

National Geographic Sea Bird

Owner: Lindblad Expeditions LLC, SEATTLE, WA. More information available from US FCC via Universal Licensing System and Coast Guard Vessel Documentation Center.

Last reported at 2019-Apr-22 22:05 UTC. Time now 2019-Apr-24 22:18 UTC.
Position N 38°34' W 124°02'.

Length 50 m; draft 2.7 m.

Type: Passenger vessel. MMSI: 366892350.

Date/timePositionNaut miles runAvg speedWind from/ knotsBaromVisibWave heightAir tempDewpointWater temp
2019-Apr-22 22:05N 38°34' W 124°02'3 6.6
2019-Apr-22 21:39N 38°31' W 124°01'1 6.3
2019-Apr-22 21:30N 38°30' W 124°00'3 6.3
2019-Apr-22 21:00N 38°27' W 123°58'3 6.4
2019-Apr-22 20:31N 38°24' W 123°57'3 6.4
2019-Apr-22 20:00N 38°21' W 123°55'3 6.3
2019-Apr-22 19:30N 38°18' W 123°54'3 6.2
2019-Apr-22 19:01N 38°15' W 123°53'4 6.2
2019-Apr-22 18:24N 38°12' W 123°51'2 6.0
2019-Apr-22 18:00N 38°10' W 123°50'3 5.9
2019-Apr-22 17:30N 38°07' W 123°48'3 5.9
2019-Apr-22 17:01N 38°04' W 123°47'3 5.8
2019-Apr-22 16:31N 38°02' W 123°46'3 5.5
2019-Apr-22 16:01N 37°59' W 123°44'3 5.2
2019-Apr-22 15:31N 37°57' W 123°43'3 5.1
2019-Apr-22 15:01N 37°54' W 123°42'3 5.5
2019-Apr-22 14:31N 37°52' W 123°41'3 5.2
2019-Apr-22 14:00N 37°49' W 123°40'3 5.1
2019-Apr-22 13:31N 37°47' W 123°39'3 5.5
2019-Apr-22 13:00N 37°44' W 123°37'3 5.4
2019-Apr-22 12:30N 37°42' W 123°36'4 5.9
2019-Apr-22 11:46N 37°38' W 123°33'312 6.7
2019-Apr-20 13:21N 33°31' W 119°40'610.0
2019-Apr-20 12:44N 33°28' W 119°33'3 9.9
2019-Apr-20 12:28N 33°27' W 119°30'12 9.7
2019-Apr-20 11:12N 33°23' W 119°17'2 9.2
2019-Apr-20 11:00N 33°22' W 119°15'13 9.4
2019-Apr-20 09:39N 33°17' W 119°00'16 9.9
2019-Apr-20 07:59N 33°11' W 118°43'5 9.9
2019-Apr-20 07:30N 33°09' W 118°37'5 9.9
2019-Apr-20 07:00N 33°07' W 118°32'5 9.9
2019-Apr-20 06:30N 33°05' W 118°27'5 9.8
2019-Apr-20 06:00N 33°02' W 118°21'5 9.6
2019-Apr-20 05:30N 33°00' W 118°16'5 9.8
2019-Apr-20 05:00N 32°58' W 118°11'510.0
2019-Apr-20 04:29N 32°56' W 118°05'510.2
2019-Apr-20 04:00N 32°54' W 118°00'5 9.9
2019-Apr-20 03:31N 32°52' W 117°55'510.0
2019-Apr-20 03:01N 32°50' W 117°49'5 9.8
2019-Apr-20 02:31N 32°47' W 117°44'5 9.8
2019-Apr-20 02:00N 32°45' W 117°39'5 9.6
2019-Apr-20 01:30N 32°43' W 117°34'5 9.6
2019-Apr-20 01:00N 32°41' W 117°29'5 9.5
2019-Apr-20 00:31N 32°39' W 117°24'5 9.5
2019-Apr-20 00:01N 32°37' W 117°18'5 9.2
2019-Apr-19 23:31N 32°39' W 117°14'4 7.3
2019-Apr-19 23:01N 32°43' W 117°13'3 0.4
2019-Apr-19 16:18N 32°42' W 117°10'0 0.0
2019-Apr-19 14:52N 32°42' W 117°10'2 5.3
2019-Apr-19 14:30N 32°43' W 117°12'3 5.1
2019-Apr-19 14:00N 32°41' W 117°14'4 7.8
2019-Apr-19 13:31N 32°38' W 117°13'3 6.9
2019-Apr-19 13:01N 32°34' W 117°13'6 6.7
2019-Apr-19 12:06N 32°28' W 117°12'1 6.7
2019-Apr-19 12:00N 32°27' W 117°12'3 6.6
2019-Apr-19 11:29N 32°24' W 117°11'5 6.4
2019-Apr-19 10:41N 32°20' W 117°08'4 6.3
2019-Apr-19 10:04N 32°16' W 117°06'0 6.0
2019-Apr-19 10:00N 32°16' W 117°06'3 6.3
2019-Apr-19 09:30N 32°13' W 117°04'3 6.3
2019-Apr-19 09:01N 32°11' W 117°02'  

Dump ship's entire track history